sensor_id;sensor_type;location;lat;lon;timestamp;P1;durP1;ratioP1;P2;durP2;ratioP2
11269;SDS011;5692;48.956;9.200;2022-11-14T00:02:25;135.77;;;129.25;;
11269;SDS011;5692;48.956;9.200;2022-11-14T00:04:51;136.82;;;130.25;;
11269;SDS011;5692;48.956;9.200;2022-11-14T00:07:17;138.98;;;132.30;;
11269;SDS011;5692;48.956;9.200;2022-11-14T00:09:43;139.90;;;133.18;;
11269;SDS011;5692;48.956;9.200;2022-11-14T00:12:09;135.57;;;129.07;;
11269;SDS011;5692;48.956;9.200;2022-11-14T00:14:35;135.93;;;129.40;;
11269;SDS011;5692;48.956;9.200;2022-11-14T00:17:01;141.85;;;135.05;;
11269;SDS011;5692;48.956;9.200;2022-11-14T00:19:27;144.32;;;137.43;;
11269;SDS011;5692;48.956;9.200;2022-11-14T00:21:53;145.82;;;138.82;;
11269;SDS011;5692;48.956;9.200;2022-11-14T00:24:19;140.05;;;133.35;;
11269;SDS011;5692;48.956;9.200;2022-11-14T00:26:45;144.40;;;137.50;;
11269;SDS011;5692;48.956;9.200;2022-11-14T00:29:12;142.25;;;135.45;;
11269;SDS011;5692;48.956;9.200;2022-11-14T00:31:39;136.07;;;129.57;;
11269;SDS011;5692;48.956;9.200;2022-11-14T00:34:05;150.60;;;143.40;;
11269;SDS011;5692;48.956;9.200;2022-11-14T00:36:31;144.07;;;137.18;;
11269;SDS011;5692;48.956;9.200;2022-11-14T00:38:57;144.35;;;137.43;;
11269;SDS011;5692;48.956;9.200;2022-11-14T00:41:23;138.48;;;131.82;;
11269;SDS011;5692;48.956;9.200;2022-11-14T00:43:49;130.80;;;124.50;;
11269;SDS011;5692;48.956;9.200;2022-11-14T00:46:15;141.35;;;134.55;;
11269;SDS011;5692;48.956;9.200;2022-11-14T00:48:41;138.55;;;131.90;;
11269;SDS011;5692;48.956;9.200;2022-11-14T00:51:07;139.02;;;132.32;;
11269;SDS011;5692;48.956;9.200;2022-11-14T00:53:33;142.15;;;135.35;;
11269;SDS011;5692;48.956;9.200;2022-11-14T00:55:59;141.88;;;135.07;;
11269;SDS011;5692;48.956;9.200;2022-11-14T00:58:25;141.48;;;134.68;;
11269;SDS011;5692;48.956;9.200;2022-11-14T01:00:51;138.35;;;131.75;;
11269;SDS011;5692;48.956;9.200;2022-11-14T01:03:18;135.60;;;129.10;;
11269;SDS011;5692;48.956;9.200;2022-11-14T01:05:45;138.35;;;131.73;;
11269;SDS011;5692;48.956;9.200;2022-11-14T01:08:12;153.25;;;145.90;;
11269;SDS011;5692;48.956;9.200;2022-11-14T01:10:39;133.25;;;126.85;;
11269;SDS011;5692;48.956;9.200;2022-11-14T01:13:05;137.27;;;130.68;;
11269;SDS011;5692;48.956;9.200;2022-11-14T01:15:31;130.65;;;124.38;;
11269;SDS011;5692;48.956;9.200;2022-11-14T01:17:57;135.07;;;128.60;;
11269;SDS011;5692;48.956;9.200;2022-11-14T01:20:23;136.75;;;130.18;;
11269;SDS011;5692;48.956;9.200;2022-11-14T01:22:49;143.43;;;136.52;;
11269;SDS011;5692;48.956;9.200;2022-11-14T01:25:15;138.48;;;131.85;;
11269;SDS011;5692;48.956;9.200;2022-11-14T01:27:41;136.25;;;129.75;;
11269;SDS011;5692;48.956;9.200;2022-11-14T01:30:07;144.43;;;137.53;;
11269;SDS011;5692;48.956;9.200;2022-11-14T01:32:33;137.45;;;130.85;;
11269;SDS011;5692;48.956;9.200;2022-11-14T01:34:59;148.60;;;141.50;;
11269;SDS011;5692;48.956;9.200;2022-11-14T01:37:25;140.43;;;133.73;;
11269;SDS011;5692;48.956;9.200;2022-11-14T01:39:51;138.48;;;131.85;;
11269;SDS011;5692;48.956;9.200;2022-11-14T01:42:17;134.00;;;127.60;;
11269;SDS011;5692;48.956;9.200;2022-11-14T01:47:10;118.05;;;112.35;;
11269;SDS011;5692;48.956;9.200;2022-11-14T01:49:40;133.32;;;126.93;;
11269;SDS011;5692;48.956;9.200;2022-11-14T01:52:09;132.65;;;126.28;;
11269;SDS011;5692;48.956;9.200;2022-11-14T01:54:37;132.40;;;126.03;;
11269;SDS011;5692;48.956;9.200;2022-11-14T01:57:05;124.72;;;118.72;;
11269;SDS011;5692;48.956;9.200;2022-11-14T01:59:35;127.40;;;121.30;;
11269;SDS011;5692;48.956;9.200;2022-11-14T02:02:05;129.50;;;123.28;;
11269;SDS011;5692;48.956;9.200;2022-11-14T02:04:34;128.45;;;122.25;;
11269;SDS011;5692;48.956;9.200;2022-11-14T02:07:02;133.32;;;126.93;;
11269;SDS011;5692;48.956;9.200;2022-11-14T02:09:30;137.25;;;130.65;;
11269;SDS011;5692;48.956;9.200;2022-11-14T02:11:57;132.15;;;125.82;;
11269;SDS011;5692;48.956;9.200;2022-11-14T02:14:25;126.47;;;120.38;;
11269;SDS011;5692;48.956;9.200;2022-11-14T02:16:51;125.65;;;119.65;;
11269;SDS011;5692;48.956;9.200;2022-11-14T02:19:17;134.70;;;128.23;;
11269;SDS011;5692;48.956;9.200;2022-11-14T02:21:43;140.95;;;134.18;;
11269;SDS011;5692;48.956;9.200;2022-11-14T02:24:09;137.20;;;130.60;;
11269;SDS011;5692;48.956;9.200;2022-11-14T02:26:36;133.57;;;127.18;;
11269;SDS011;5692;48.956;9.200;2022-11-14T02:29:03;130.13;;;123.90;;
11269;SDS011;5692;48.956;9.200;2022-11-14T02:31:29;134.95;;;128.45;;
11269;SDS011;5692;48.956;9.200;2022-11-14T02:33:55;129.10;;;122.90;;
11269;SDS011;5692;48.956;9.200;2022-11-14T02:36:21;132.15;;;125.80;;
11269;SDS011;5692;48.956;9.200;2022-11-14T02:38:47;129.77;;;123.57;;
11269;SDS011;5692;48.956;9.200;2022-11-14T02:41:13;128.95;;;122.78;;
11269;SDS011;5692;48.956;9.200;2022-11-14T02:43:39;129.93;;;123.68;;
11269;SDS011;5692;48.956;9.200;2022-11-14T02:46:05;129.25;;;123.05;;
11269;SDS011;5692;48.956;9.200;2022-11-14T02:48:31;127.85;;;121.75;;
11269;SDS011;5692;48.956;9.200;2022-11-14T02:50:57;129.20;;;123.00;;
11269;SDS011;5692;48.956;9.200;2022-11-14T02:53:23;130.40;;;124.13;;
11269;SDS011;5692;48.956;9.200;2022-11-14T02:55:49;123.82;;;117.88;;
11269;SDS011;5692;48.956;9.200;2022-11-14T02:58:15;129.25;;;123.05;;
11269;SDS011;5692;48.956;9.200;2022-11-14T03:00:41;117.78;;;112.10;;
11269;SDS011;5692;48.956;9.200;2022-11-14T03:03:07;115.90;;;110.32;;
11269;SDS011;5692;48.956;9.200;2022-11-14T03:05:33;122.53;;;116.63;;
11269;SDS011;5692;48.956;9.200;2022-11-14T03:07:59;123.88;;;117.93;;
11269;SDS011;5692;48.956;9.200;2022-11-14T03:10:25;123.85;;;117.93;;
11269;SDS011;5692;48.956;9.200;2022-11-14T03:12:54;127.22;;;121.13;;
11269;SDS011;5692;48.956;9.200;2022-11-14T03:15:20;116.85;;;111.25;;
11269;SDS011;5692;48.956;9.200;2022-11-14T03:17:46;125.47;;;119.47;;
11269;SDS011;5692;48.956;9.200;2022-11-14T03:20:12;129.30;;;123.10;;
11269;SDS011;5692;48.956;9.200;2022-11-14T03:22:38;128.57;;;122.38;;
11269;SDS011;5692;48.956;9.200;2022-11-14T03:25:04;114.60;;;109.10;;
11269;SDS011;5692;48.956;9.200;2022-11-14T03:27:30;119.32;;;113.63;;
11269;SDS011;5692;48.956;9.200;2022-11-14T03:29:56;124.65;;;118.68;;
11269;SDS011;5692;48.956;9.200;2022-11-14T03:32:22;123.47;;;117.57;;
11269;SDS011;5692;48.956;9.200;2022-11-14T03:34:48;122.15;;;116.25;;
11269;SDS011;5692;48.956;9.200;2022-11-14T03:37:14;120.97;;;115.18;;
11269;SDS011;5692;48.956;9.200;2022-11-14T03:39:40;118.93;;;113.22;;
11269;SDS011;5692;48.956;9.200;2022-11-14T03:42:06;124.68;;;118.68;;
11269;SDS011;5692;48.956;9.200;2022-11-14T03:44:33;123.93;;;118.00;;
11269;SDS011;5692;48.956;9.200;2022-11-14T03:46:59;127.65;;;121.55;;
11269;SDS011;5692;48.956;9.200;2022-11-14T03:49:25;122.05;;;116.18;;
11269;SDS011;5692;48.956;9.200;2022-11-14T03:51:51;119.32;;;113.63;;
11269;SDS011;5692;48.956;9.200;2022-11-14T03:54:17;138.55;;;131.90;;
11269;SDS011;5692;48.956;9.200;2022-11-14T03:56:43;136.57;;;130.02;;
11269;SDS011;5692;48.956;9.200;2022-11-14T03:59:09;134.88;;;128.40;;
11269;SDS011;5692;48.956;9.200;2022-11-14T04:01:35;135.80;;;129.30;;
11269;SDS011;5692;48.956;9.200;2022-11-14T04:04:01;132.27;;;125.93;;
11269;SDS011;5692;48.956;9.200;2022-11-14T04:06:27;122.38;;;116.50;;
11269;SDS011;5692;48.956;9.200;2022-11-14T04:08:53;131.02;;;124.72;;
11269;SDS011;5692;48.956;9.200;2022-11-14T04:11:20;128.05;;;121.90;;
11269;SDS011;5692;48.956;9.200;2022-11-14T04:13:46;131.40;;;125.10;;
11269;SDS011;5692;48.956;9.200;2022-11-14T04:16:12;121.45;;;115.63;;
11269;SDS011;5692;48.956;9.200;2022-11-14T04:18:38;120.20;;;114.40;;
11269;SDS011;5692;48.956;9.200;2022-11-14T04:21:04;118.60;;;112.90;;
11269;SDS011;5692;48.956;9.200;2022-11-14T04:23:30;127.80;;;121.65;;
11269;SDS011;5692;48.956;9.200;2022-11-14T04:25:56;117.38;;;111.78;;
11269;SDS011;5692;48.956;9.200;2022-11-14T04:28:22;121.28;;;115.47;;
11269;SDS011;5692;48.956;9.200;2022-11-14T04:30:48;108.85;;;103.60;;
11269;SDS011;5692;48.956;9.200;2022-11-14T04:33:14;116.47;;;110.88;;
11269;SDS011;5692;48.956;9.200;2022-11-14T04:35:40;119.15;;;113.45;;
11269;SDS011;5692;48.956;9.200;2022-11-14T04:38:06;123.32;;;117.43;;
11269;SDS011;5692;48.956;9.200;2022-11-14T04:40:32;119.90;;;114.15;;
11269;SDS011;5692;48.956;9.200;2022-11-14T04:42:58;118.95;;;113.22;;
11269;SDS011;5692;48.956;9.200;2022-11-14T04:45:24;122.72;;;116.82;;
11269;SDS011;5692;48.956;9.200;2022-11-14T04:47:50;113.13;;;107.70;;
11269;SDS011;5692;48.956;9.200;2022-11-14T04:50:16;119.25;;;113.55;;
11269;SDS011;5692;48.956;9.200;2022-11-14T04:52:42;106.65;;;101.55;;
11269;SDS011;5692;48.956;9.200;2022-11-14T04:55:08;118.95;;;113.25;;
11269;SDS011;5692;48.956;9.200;2022-11-14T04:57:34;110.10;;;104.80;;
11269;SDS011;5692;48.956;9.200;2022-11-14T05:00:00;121.60;;;115.75;;
11269;SDS011;5692;48.956;9.200;2022-11-14T05:02:29;124.68;;;118.68;;
11269;SDS011;5692;48.956;9.200;2022-11-14T05:04:55;118.82;;;113.13;;
11269;SDS011;5692;48.956;9.200;2022-11-14T05:07:21;104.75;;;99.70;;
11269;SDS011;5692;48.956;9.200;2022-11-14T05:09:47;114.35;;;108.85;;
11269;SDS011;5692;48.956;9.200;2022-11-14T05:12:13;115.85;;;110.25;;
11269;SDS011;5692;48.956;9.200;2022-11-14T05:14:39;119.75;;;114.00;;
11269;SDS011;5692;48.956;9.200;2022-11-14T05:17:05;113.75;;;108.25;;
11269;SDS011;5692;48.956;9.200;2022-11-14T05:19:31;115.00;;;109.47;;
11269;SDS011;5692;48.956;9.200;2022-11-14T05:21:57;114.05;;;108.57;;
11269;SDS011;5692;48.956;9.200;2022-11-14T05:24:23;116.35;;;110.75;;
11269;SDS011;5692;48.956;9.200;2022-11-14T05:26:50;112.38;;;106.97;;
11269;SDS011;5692;48.956;9.200;2022-11-14T05:29:16;110.85;;;105.55;;
11269;SDS011;5692;48.956;9.200;2022-11-14T05:31:42;124.63;;;118.63;;
11269;SDS011;5692;48.956;9.200;2022-11-14T05:34:08;122.22;;;116.32;;
11269;SDS011;5692;48.956;9.200;2022-11-14T05:36:34;117.38;;;111.78;;
11269;SDS011;5692;48.956;9.200;2022-11-14T05:39:00;125.00;;;119.00;;
11269;SDS011;5692;48.956;9.200;2022-11-14T05:41:25;116.37;;;110.77;;
11269;SDS011;5692;48.956;9.200;2022-11-14T05:43:52;118.85;;;113.15;;
11269;SDS011;5692;48.956;9.200;2022-11-14T05:46:17;132.27;;;125.93;;
11269;SDS011;5692;48.956;9.200;2022-11-14T05:48:43;126.75;;;120.65;;
11269;SDS011;5692;48.956;9.200;2022-11-14T05:51:12;134.63;;;128.13;;
11269;SDS011;5692;48.956;9.200;2022-11-14T05:53:39;124.82;;;118.82;;
11269;SDS011;5692;48.956;9.200;2022-11-14T05:56:06;131.50;;;125.20;;
11269;SDS011;5692;48.956;9.200;2022-11-14T05:58:34;123.78;;;117.82;;
11269;SDS011;5692;48.956;9.200;2022-11-14T06:01:08;124.32;;;118.35;;
11269;SDS011;5692;48.956;9.200;2022-11-14T06:03:38;118.78;;;113.07;;
11269;SDS011;5692;48.956;9.200;2022-11-14T06:06:05;132.82;;;126.45;;
11269;SDS011;5692;48.956;9.200;2022-11-14T06:08:32;116.70;;;111.10;;
11269;SDS011;5692;48.956;9.200;2022-11-14T06:11:02;126.50;;;120.43;;
11269;SDS011;5692;48.956;9.200;2022-11-14T06:13:29;118.30;;;112.60;;
11269;SDS011;5692;48.956;9.200;2022-11-14T06:16:02;120.32;;;114.53;;
11269;SDS011;5692;48.956;9.200;2022-11-14T06:18:29;112.80;;;107.38;;
11269;SDS011;5692;48.956;9.200;2022-11-14T06:21:02;116.15;;;110.55;;
11269;SDS011;5692;48.956;9.200;2022-11-14T06:23:28;121.35;;;115.55;;
11269;SDS011;5692;48.956;9.200;2022-11-14T06:26:01;127.90;;;121.78;;
11269;SDS011;5692;48.956;9.200;2022-11-14T06:28:27;126.60;;;120.50;;
11269;SDS011;5692;48.956;9.200;2022-11-14T06:30:57;126.22;;;120.18;;
11269;SDS011;5692;48.956;9.200;2022-11-14T06:33:24;120.03;;;114.25;;
11269;SDS011;5692;48.956;9.200;2022-11-14T06:35:50;117.57;;;111.93;;
11269;SDS011;5692;48.956;9.200;2022-11-14T06:38:16;124.43;;;118.45;;
11269;SDS011;5692;48.956;9.200;2022-11-14T06:40:42;116.50;;;110.90;;
11269;SDS011;5692;48.956;9.200;2022-11-14T06:43:08;123.53;;;117.57;;
11269;SDS011;5692;48.956;9.200;2022-11-14T06:45:34;126.53;;;120.45;;
11269;SDS011;5692;48.956;9.200;2022-11-14T06:48:00;125.88;;;119.82;;
11269;SDS011;5692;48.956;9.200;2022-11-14T06:50:26;123.88;;;117.93;;
11269;SDS011;5692;48.956;9.200;2022-11-14T06:52:52;127.57;;;121.45;;
11269;SDS011;5692;48.956;9.200;2022-11-14T06:55:18;121.60;;;115.75;;
11269;SDS011;5692;48.956;9.200;2022-11-14T06:57:44;129.60;;;123.38;;
11269;SDS011;5692;48.956;9.200;2022-11-14T07:00:12;123.57;;;117.63;;
11269;SDS011;5692;48.956;9.200;2022-11-14T07:02:38;125.90;;;119.85;;
11269;SDS011;5692;48.956;9.200;2022-11-14T07:05:04;124.45;;;118.45;;
11269;SDS011;5692;48.956;9.200;2022-11-14T07:07:30;125.60;;;119.57;;
11269;SDS011;5692;48.956;9.200;2022-11-14T07:09:56;119.30;;;113.57;;
11269;SDS011;5692;48.956;9.200;2022-11-14T07:12:22;125.45;;;119.43;;
11269;SDS011;5692;48.956;9.200;2022-11-14T07:14:48;127.78;;;121.63;;
11269;SDS011;5692;48.956;9.200;2022-11-14T07:17:14;129.18;;;122.97;;
11269;SDS011;5692;48.956;9.200;2022-11-14T07:19:40;129.80;;;123.60;;
11269;SDS011;5692;48.956;9.200;2022-11-14T07:22:06;134.00;;;127.60;;
11269;SDS011;5692;48.956;9.200;2022-11-14T07:24:32;142.88;;;136.00;;
11269;SDS011;5692;48.956;9.200;2022-11-14T07:26:59;138.85;;;132.18;;
11269;SDS011;5692;48.956;9.200;2022-11-14T07:29:26;128.38;;;122.20;;
11269;SDS011;5692;48.956;9.200;2022-11-14T07:31:52;134.50;;;128.05;;
11269;SDS011;5692;48.956;9.200;2022-11-14T07:34:18;136.23;;;129.68;;
11269;SDS011;5692;48.956;9.200;2022-11-14T07:36:44;134.93;;;128.43;;
11269;SDS011;5692;48.956;9.200;2022-11-14T07:39:10;129.27;;;123.05;;
11269;SDS011;5692;48.956;9.200;2022-11-14T07:41:35;131.82;;;125.50;;
11269;SDS011;5692;48.956;9.200;2022-11-14T07:44:01;126.88;;;120.78;;
11269;SDS011;5692;48.956;9.200;2022-11-14T07:46:27;123.50;;;117.57;;
11269;SDS011;5692;48.956;9.200;2022-11-14T07:48:53;129.40;;;123.18;;
11269;SDS011;5692;48.956;9.200;2022-11-14T07:51:19;126.60;;;120.53;;
11269;SDS011;5692;48.956;9.200;2022-11-14T07:53:45;122.43;;;116.53;;
11269;SDS011;5692;48.956;9.200;2022-11-14T07:56:12;122.00;;;116.15;;
11269;SDS011;5692;48.956;9.200;2022-11-14T07:58:38;129.88;;;123.65;;
11269;SDS011;5692;48.956;9.200;2022-11-14T08:01:05;133.27;;;126.88;;
11269;SDS011;5692;48.956;9.200;2022-11-14T08:03:31;130.55;;;124.28;;
11269;SDS011;5692;48.956;9.200;2022-11-14T08:06:08;133.80;;;127.40;;
11269;SDS011;5692;48.956;9.200;2022-11-14T08:08:35;142.55;;;135.73;;
11269;SDS011;5692;48.956;9.200;2022-11-14T08:11:01;138.00;;;131.38;;
11269;SDS011;5692;48.956;9.200;2022-11-14T08:13:27;136.77;;;130.23;;
11269;SDS011;5692;48.956;9.200;2022-11-14T08:15:53;133.02;;;126.63;;
11269;SDS011;5692;48.956;9.200;2022-11-14T08:18:20;137.98;;;131.38;;
11269;SDS011;5692;48.956;9.200;2022-11-14T08:20:46;134.13;;;127.72;;
11269;SDS011;5692;48.956;9.200;2022-11-14T08:23:12;132.13;;;125.78;;
11269;SDS011;5692;48.956;9.200;2022-11-14T08:25:38;145.45;;;138.48;;
11269;SDS011;5692;48.956;9.200;2022-11-14T08:28:04;128.55;;;122.35;;
11269;SDS011;5692;48.956;9.200;2022-11-14T08:30:31;133.95;;;127.50;;
11269;SDS011;5692;48.956;9.200;2022-11-14T08:32:59;145.80;;;138.80;;
11269;SDS011;5692;48.956;9.200;2022-11-14T08:35:26;133.75;;;127.35;;
11269;SDS011;5692;48.956;9.200;2022-11-14T08:37:52;143.77;;;136.88;;
11269;SDS011;5692;48.956;9.200;2022-11-14T08:40:18;133.13;;;126.72;;
11269;SDS011;5692;48.956;9.200;2022-11-14T08:42:44;123.70;;;117.75;;
11269;SDS011;5692;48.956;9.200;2022-11-14T08:45:10;144.30;;;137.40;;
11269;SDS011;5692;48.956;9.200;2022-11-14T08:47:36;137.63;;;131.02;;
11269;SDS011;5692;48.956;9.200;2022-11-14T08:50:02;131.15;;;124.85;;
11269;SDS011;5692;48.956;9.200;2022-11-14T08:52:28;144.65;;;137.73;;
11269;SDS011;5692;48.956;9.200;2022-11-14T08:54:54;142.88;;;136.02;;
11269;SDS011;5692;48.956;9.200;2022-11-14T08:57:20;162.30;;;154.50;;
11269;SDS011;5692;48.956;9.200;2022-11-14T08:59:46;136.38;;;129.82;;
11269;SDS011;5692;48.956;9.200;2022-11-14T09:02:12;149.30;;;142.13;;
11269;SDS011;5692;48.956;9.200;2022-11-14T09:04:38;161.48;;;153.75;;
11269;SDS011;5692;48.956;9.200;2022-11-14T09:07:04;152.75;;;145.43;;
11269;SDS011;5692;48.956;9.200;2022-11-14T09:09:31;152.27;;;144.98;;
11269;SDS011;5692;48.956;9.200;2022-11-14T09:11:57;151.55;;;144.27;;
11269;SDS011;5692;48.956;9.200;2022-11-14T09:14:23;164.02;;;156.13;;
11269;SDS011;5692;48.956;9.200;2022-11-14T09:16:49;163.63;;;155.77;;
11269;SDS011;5692;48.956;9.200;2022-11-14T09:19:15;149.50;;;142.30;;
11269;SDS011;5692;48.956;9.200;2022-11-14T09:21:41;158.63;;;151.02;;
11269;SDS011;5692;48.956;9.200;2022-11-14T09:24:07;171.77;;;163.55;;
11269;SDS011;5692;48.956;9.200;2022-11-14T09:26:33;148.00;;;140.90;;
11269;SDS011;5692;48.956;9.200;2022-11-14T09:28:59;151.10;;;143.85;;
11269;SDS011;5692;48.956;9.200;2022-11-14T09:31:26;152.25;;;144.95;;
11269;SDS011;5692;48.956;9.200;2022-11-14T09:33:52;160.85;;;153.15;;
11269;SDS011;5692;48.956;9.200;2022-11-14T09:36:18;157.10;;;149.57;;
11269;SDS011;5692;48.956;9.200;2022-11-14T09:38:45;151.15;;;143.90;;
11269;SDS011;5692;48.956;9.200;2022-11-14T09:41:24;140.50;;;133.80;;
11269;SDS011;5692;48.956;9.200;2022-11-14T09:44:02;158.85;;;151.25;;
11269;SDS011;5692;48.956;9.200;2022-11-14T09:46:31;147.82;;;140.73;;
11269;SDS011;5692;48.956;9.200;2022-11-14T09:48:57;149.07;;;141.93;;
11269;SDS011;5692;48.956;9.200;2022-11-14T09:51:31;146.75;;;139.70;;
11269;SDS011;5692;48.956;9.200;2022-11-14T09:56:42;173.15;;;164.85;;
11269;SDS011;5692;48.956;9.200;2022-11-14T09:59:09;165.45;;;157.52;;
11269;SDS011;5692;48.956;9.200;2022-11-14T10:01:50;162.43;;;154.63;;
11269;SDS011;5692;48.956;9.200;2022-11-14T10:07:09;169.60;;;161.48;;
11269;SDS011;5692;48.956;9.200;2022-11-14T10:09:47;159.63;;;151.98;;
11269;SDS011;5692;48.956;9.200;2022-11-14T10:14:53;176.77;;;168.30;;
11269;SDS011;5692;48.956;9.200;2022-11-14T10:25:54;179.23;;;170.63;;
11269;SDS011;5692;48.956;9.200;2022-11-14T10:30:37;168.38;;;160.30;;
11269;SDS011;5692;48.956;9.200;2022-11-14T10:33:11;174.88;;;166.48;;
11269;SDS011;5692;48.956;9.200;2022-11-14T10:35:42;183.82;;;175.02;;
11269;SDS011;5692;48.956;9.200;2022-11-14T10:38:17;186.27;;;177.35;;
11269;SDS011;5692;48.956;9.200;2022-11-14T10:40:49;180.38;;;171.73;;
11269;SDS011;5692;48.956;9.200;2022-11-14T10:43:24;181.75;;;173.05;;
11269;SDS011;5692;48.956;9.200;2022-11-14T10:46:06;193.10;;;183.85;;
11269;SDS011;5692;48.956;9.200;2022-11-14T10:48:37;191.82;;;182.63;;
11269;SDS011;5692;48.956;9.200;2022-11-14T10:51:11;202.25;;;192.55;;
11269;SDS011;5692;48.956;9.200;2022-11-14T10:53:45;194.25;;;184.95;;
11269;SDS011;5692;48.956;9.200;2022-11-14T10:56:13;182.30;;;173.57;;
11269;SDS011;5692;48.956;9.200;2022-11-14T10:58:39;203.68;;;193.93;;
11269;SDS011;5692;48.956;9.200;2022-11-14T11:03:51;182.70;;;173.95;;
11269;SDS011;5692;48.956;9.200;2022-11-14T11:06:24;180.60;;;171.95;;
11269;SDS011;5692;48.956;9.200;2022-11-14T11:08:50;179.10;;;170.50;;
11269;SDS011;5692;48.956;9.200;2022-11-14T11:11:39;195.23;;;185.90;;
11269;SDS011;5692;48.956;9.200;2022-11-14T11:14:14;199.05;;;189.55;;
11269;SDS011;5692;48.956;9.200;2022-11-14T11:16:41;194.65;;;185.35;;
11269;SDS011;5692;48.956;9.200;2022-11-14T11:19:41;204.77;;;194.97;;
11269;SDS011;5692;48.956;9.200;2022-11-14T11:22:00;202.40;;;192.70;;
11269;SDS011;5692;48.956;9.200;2022-11-14T11:24:32;198.30;;;188.80;;
11269;SDS011;5692;48.956;9.200;2022-11-14T11:27:12;206.82;;;196.93;;
11269;SDS011;5692;48.956;9.200;2022-11-14T11:29:42;201.00;;;191.40;;
11269;SDS011;5692;48.956;9.200;2022-11-14T11:32:08;197.75;;;188.27;;
11269;SDS011;5692;48.956;9.200;2022-11-14T11:34:34;198.45;;;188.95;;
11269;SDS011;5692;48.956;9.200;2022-11-14T11:37:06;206.25;;;196.35;;
11269;SDS011;5692;48.956;9.200;2022-11-14T11:39:39;211.50;;;201.38;;
11269;SDS011;5692;48.956;9.200;2022-11-14T11:42:07;204.70;;;194.90;;
11269;SDS011;5692;48.956;9.200;2022-11-14T11:44:35;192.07;;;182.88;;
11269;SDS011;5692;48.956;9.200;2022-11-14T11:47:03;204.23;;;194.45;;
11269;SDS011;5692;48.956;9.200;2022-11-14T11:49:39;204.05;;;194.30;;
11269;SDS011;5692;48.956;9.200;2022-11-14T11:57:27;182.70;;;173.95;;
11269;SDS011;5692;48.956;9.200;2022-11-14T12:00:00;180.63;;;171.98;;
11269;SDS011;5692;48.956;9.200;2022-11-14T12:02:27;166.23;;;158.23;;
11269;SDS011;5692;48.956;9.200;2022-11-14T12:04:54;161.05;;;153.32;;
11269;SDS011;5692;48.956;9.200;2022-11-14T12:07:43;177.48;;;168.98;;
11269;SDS011;5692;48.956;9.200;2022-11-14T12:10:11;172.95;;;164.65;;
11269;SDS011;5692;48.956;9.200;2022-11-14T12:12:46;173.63;;;165.27;;
11269;SDS011;5692;48.956;9.200;2022-11-14T12:15:21;175.90;;;167.50;;
11269;SDS011;5692;48.956;9.200;2022-11-14T12:31:10;183.50;;;174.70;;
11269;SDS011;5692;48.956;9.200;2022-11-14T12:33:38;182.88;;;174.13;;
11269;SDS011;5692;48.956;9.200;2022-11-14T12:36:07;182.18;;;173.45;;
11269;SDS011;5692;48.956;9.200;2022-11-14T12:38:41;185.65;;;176.75;;
11269;SDS011;5692;48.956;9.200;2022-11-14T12:41:08;180.68;;;172.00;;
11269;SDS011;5692;48.956;9.200;2022-11-14T12:43:41;170.68;;;162.50;;
11269;SDS011;5692;48.956;9.200;2022-11-14T12:46:10;173.75;;;165.45;;
11269;SDS011;5692;48.956;9.200;2022-11-14T12:48:38;184.88;;;176.02;;
11269;SDS011;5692;48.956;9.200;2022-11-14T12:51:07;183.65;;;174.85;;
11269;SDS011;5692;48.956;9.200;2022-11-14T12:53:52;183.10;;;174.30;;
11269;SDS011;5692;48.956;9.200;2022-11-14T13:01:23;179.15;;;170.55;;
11269;SDS011;5692;48.956;9.200;2022-11-14T13:03:59;204.75;;;194.95;;
11269;SDS011;5692;48.956;9.200;2022-11-14T13:06:32;200.73;;;191.13;;
11269;SDS011;5692;48.956;9.200;2022-11-14T13:09:36;193.43;;;184.15;;
11269;SDS011;5692;48.956;9.200;2022-11-14T13:11:55;173.05;;;164.75;;
11269;SDS011;5692;48.956;9.200;2022-11-14T13:14:47;196.32;;;186.93;;
11269;SDS011;5692;48.956;9.200;2022-11-14T13:17:32;189.82;;;180.73;;
11269;SDS011;5692;48.956;9.200;2022-11-14T13:31:03;215.52;;;205.23;;
11269;SDS011;5692;48.956;9.200;2022-11-14T13:33:39;217.75;;;207.32;;
11269;SDS011;5692;48.956;9.200;2022-11-14T13:36:07;209.15;;;199.15;;
11269;SDS011;5692;48.956;9.200;2022-11-14T13:38:46;180.77;;;172.13;;
11269;SDS011;5692;48.956;9.200;2022-11-14T13:41:21;183.35;;;174.55;;
11269;SDS011;5692;48.956;9.200;2022-11-14T13:46:32;173.73;;;165.43;;
11269;SDS011;5692;48.956;9.200;2022-11-14T13:51:33;209.90;;;199.88;;
11269;SDS011;5692;48.956;9.200;2022-11-14T13:53:59;209.63;;;199.60;;
11269;SDS011;5692;48.956;9.200;2022-11-14T14:01:37;216.50;;;206.13;;
11269;SDS011;5692;48.956;9.200;2022-11-14T14:11:52;180.90;;;172.25;;
11269;SDS011;5692;48.956;9.200;2022-11-14T14:19:34;199.55;;;189.98;;
11269;SDS011;5692;48.956;9.200;2022-11-14T14:22:18;197.48;;;188.02;;
11269;SDS011;5692;48.956;9.200;2022-11-14T14:24:57;189.63;;;180.52;;
11269;SDS011;5692;48.956;9.200;2022-11-14T14:27:31;186.50;;;177.60;;
11269;SDS011;5692;48.956;9.200;2022-11-14T14:32:25;201.83;;;192.17;;
11269;SDS011;5692;48.956;9.200;2022-11-14T14:34:51;196.30;;;186.90;;
11269;SDS011;5692;48.956;9.200;2022-11-14T14:37:24;212.65;;;202.45;;
11269;SDS011;5692;48.956;9.200;2022-11-14T14:42:22;198.40;;;188.90;;
11269;SDS011;5692;48.956;9.200;2022-11-14T14:44:49;194.90;;;185.57;;
11269;SDS011;5692;48.956;9.200;2022-11-14T14:50:00;208.52;;;198.52;;
11269;SDS011;5692;48.956;9.200;2022-11-14T14:52:31;195.25;;;185.90;;
11269;SDS011;5692;48.956;9.200;2022-11-14T14:54:57;198.10;;;188.60;;
11269;SDS011;5692;48.956;9.200;2022-11-14T14:57:26;203.82;;;194.07;;
11269;SDS011;5692;48.956;9.200;2022-11-14T14:59:57;206.70;;;196.80;;
11269;SDS011;5692;48.956;9.200;2022-11-14T15:02:24;225.63;;;214.82;;
11269;SDS011;5692;48.956;9.200;2022-11-14T15:04:50;219.25;;;208.75;;
11269;SDS011;5692;48.956;9.200;2022-11-14T15:07:20;221.27;;;210.68;;
11269;SDS011;5692;48.956;9.200;2022-11-14T15:09:53;217.85;;;207.45;;
11269;SDS011;5692;48.956;9.200;2022-11-14T15:12:20;216.57;;;206.23;;
11269;SDS011;5692;48.956;9.200;2022-11-14T15:14:46;202.05;;;192.40;;
11269;SDS011;5692;48.956;9.200;2022-11-14T15:17:12;200.13;;;190.52;;
11269;SDS011;5692;48.956;9.200;2022-11-14T15:19:40;192.40;;;183.20;;
11269;SDS011;5692;48.956;9.200;2022-11-14T15:24:34;208.60;;;198.65;;
11269;SDS011;5692;48.956;9.200;2022-11-14T15:27:04;203.52;;;193.80;;
11269;SDS011;5692;48.956;9.200;2022-11-14T15:29:30;213.70;;;203.48;;
11269;SDS011;5692;48.956;9.200;2022-11-14T15:34:35;189.88;;;180.77;;
11269;SDS011;5692;48.956;9.200;2022-11-14T15:39:41;203.63;;;193.88;;
11269;SDS011;5692;48.956;9.200;2022-11-14T15:42:11;202.50;;;192.80;;
11269;SDS011;5692;48.956;9.200;2022-11-14T15:44:38;215.10;;;204.80;;
11269;SDS011;5692;48.956;9.200;2022-11-14T15:47:09;229.30;;;218.30;;
11269;SDS011;5692;48.956;9.200;2022-11-14T15:49:35;202.70;;;192.98;;
11269;SDS011;5692;48.956;9.200;2022-11-14T15:52:02;215.63;;;205.32;;